sensor_id;sensor_type;location;lat;lon;timestamp;P1;durP1;ratioP1;P2;durP2;ratioP2
58756;SDS011;44527;47.460;19.016;2024-02-26T00:02:41;24.33;;;13.48;;
58756;SDS011;44527;47.460;19.016;2024-02-26T00:05:44;25.12;;;12.80;;
58756;SDS011;44527;47.460;19.016;2024-02-26T00:08:46;21.48;;;12.18;;
58756;SDS011;44527;47.460;19.016;2024-02-26T00:11:50;24.75;;;13.68;;
58756;SDS011;44527;47.460;19.016;2024-02-26T00:14:54;26.85;;;13.20;;
58756;SDS011;44527;47.460;19.016;2024-02-26T00:17:57;29.77;;;12.90;;
58756;SDS011;44527;47.460;19.016;2024-02-26T00:20:59;22.10;;;12.23;;
58756;SDS011;44527;47.460;19.016;2024-02-26T00:24:03;22.80;;;11.38;;
58756;SDS011;44527;47.460;19.016;2024-02-26T00:27:06;22.80;;;10.95;;
58756;SDS011;44527;47.460;19.016;2024-02-26T00:30:09;22.85;;;12.13;;
58756;SDS011;44527;47.460;19.016;2024-02-26T00:33:12;19.75;;;11.48;;
58756;SDS011;44527;47.460;19.016;2024-02-26T00:36:17;20.05;;;11.18;;
58756;SDS011;44527;47.460;19.016;2024-02-26T00:39:20;21.87;;;10.63;;
58756;SDS011;44527;47.460;19.016;2024-02-26T00:42:23;24.00;;;11.82;;
58756;SDS011;44527;47.460;19.016;2024-02-26T00:45:27;23.23;;;11.38;;
58756;SDS011;44527;47.460;19.016;2024-02-26T00:48:30;19.48;;;10.95;;
58756;SDS011;44527;47.460;19.016;2024-02-26T00:51:33;19.15;;;10.93;;
58756;SDS011;44527;47.460;19.016;2024-02-26T00:54:35;19.52;;;11.35;;
58756;SDS011;44527;47.460;19.016;2024-02-26T00:57:38;21.58;;;10.73;;
58756;SDS011;44527;47.460;19.016;2024-02-26T01:00:43;23.05;;;11.70;;
58756;SDS011;44527;47.460;19.016;2024-02-26T01:03:45;17.95;;;10.15;;
58756;SDS011;44527;47.460;19.016;2024-02-26T01:06:48;19.90;;;10.60;;
58756;SDS011;44527;47.460;19.016;2024-02-26T01:09:51;21.05;;;10.73;;
58756;SDS011;44527;47.460;19.016;2024-02-26T01:12:54;21.12;;;11.18;;
58756;SDS011;44527;47.460;19.016;2024-02-26T01:15:56;16.65;;;9.75;;
58756;SDS011;44527;47.460;19.016;2024-02-26T01:18:59;21.10;;;10.05;;
58756;SDS011;44527;47.460;19.016;2024-02-26T01:22:01;21.12;;;10.75;;
58756;SDS011;44527;47.460;19.016;2024-02-26T01:25:05;20.10;;;11.60;;
58756;SDS011;44527;47.460;19.016;2024-02-26T01:28:07;24.20;;;10.77;;
58756;SDS011;44527;47.460;19.016;2024-02-26T01:31:10;16.30;;;9.57;;
58756;SDS011;44527;47.460;19.016;2024-02-26T01:34:12;19.35;;;9.50;;
58756;SDS011;44527;47.460;19.016;2024-02-26T01:37:16;18.30;;;9.63;;
58756;SDS011;44527;47.460;19.016;2024-02-26T01:40:18;17.50;;;9.38;;
58756;SDS011;44527;47.460;19.016;2024-02-26T01:43:22;14.63;;;8.38;;
58756;SDS011;44527;47.460;19.016;2024-02-26T01:46:25;20.42;;;9.73;;
58756;SDS011;44527;47.460;19.016;2024-02-26T01:49:29;18.08;;;9.10;;
58756;SDS011;44527;47.460;19.016;2024-02-26T01:52:32;16.55;;;9.35;;
58756;SDS011;44527;47.460;19.016;2024-02-26T01:55:35;16.85;;;9.73;;
58756;SDS011;44527;47.460;19.016;2024-02-26T01:58:41;18.35;;;9.20;;
58756;SDS011;44527;47.460;19.016;2024-02-26T02:01:45;15.73;;;9.10;;
58756;SDS011;44527;47.460;19.016;2024-02-26T02:04:54;18.50;;;9.63;;
58756;SDS011;44527;47.460;19.016;2024-02-26T02:07:56;21.27;;;11.32;;
58756;SDS011;44527;47.460;19.016;2024-02-26T02:10:59;19.20;;;10.88;;
58756;SDS011;44527;47.460;19.016;2024-02-26T02:14:02;19.83;;;10.82;;
58756;SDS011;44527;47.460;19.016;2024-02-26T02:17:05;18.00;;;10.45;;
58756;SDS011;44527;47.460;19.016;2024-02-26T02:20:08;19.12;;;9.57;;
58756;SDS011;44527;47.460;19.016;2024-02-26T02:23:22;20.50;;;11.45;;
58756;SDS011;44527;47.460;19.016;2024-02-26T02:26:25;19.10;;;10.63;;
58756;SDS011;44527;47.460;19.016;2024-02-26T02:29:27;17.00;;;10.57;;
58756;SDS011;44527;47.460;19.016;2024-02-26T02:32:30;19.67;;;10.43;;
58756;SDS011;44527;47.460;19.016;2024-02-26T02:35:33;19.37;;;11.63;;
58756;SDS011;44527;47.460;19.016;2024-02-26T02:38:41;20.20;;;11.27;;
58756;SDS011;44527;47.460;19.016;2024-02-26T02:41:52;21.55;;;10.82;;
58756;SDS011;44527;47.460;19.016;2024-02-26T02:44:54;21.67;;;10.85;;
58756;SDS011;44527;47.460;19.016;2024-02-26T02:47:57;18.55;;;10.55;;
58756;SDS011;44527;47.460;19.016;2024-02-26T02:51:00;21.95;;;10.75;;
58756;SDS011;44527;47.460;19.016;2024-02-26T02:54:02;18.62;;;10.48;;
58756;SDS011;44527;47.460;19.016;2024-02-26T02:57:05;19.67;;;10.80;;
58756;SDS011;44527;47.460;19.016;2024-02-26T03:00:08;20.42;;;10.95;;
58756;SDS011;44527;47.460;19.016;2024-02-26T03:03:11;17.65;;;9.93;;
58756;SDS011;44527;47.460;19.016;2024-02-26T03:06:14;18.90;;;10.68;;
58756;SDS011;44527;47.460;19.016;2024-02-26T03:09:16;19.95;;;10.00;;
58756;SDS011;44527;47.460;19.016;2024-02-26T03:12:19;19.50;;;9.95;;
58756;SDS011;44527;47.460;19.016;2024-02-26T03:15:22;16.33;;;9.38;;
58756;SDS011;44527;47.460;19.016;2024-02-26T03:18:24;18.05;;;10.10;;
58756;SDS011;44527;47.460;19.016;2024-02-26T03:21:27;25.08;;;10.57;;
58756;SDS011;44527;47.460;19.016;2024-02-26T03:24:30;19.48;;;11.00;;
58756;SDS011;44527;47.460;19.016;2024-02-26T03:27:32;18.35;;;9.95;;
58756;SDS011;44527;47.460;19.016;2024-02-26T03:30:35;18.05;;;10.38;;
58756;SDS011;44527;47.460;19.016;2024-02-26T03:33:37;18.40;;;10.63;;
58756;SDS011;44527;47.460;19.016;2024-02-26T03:36:41;19.62;;;10.57;;
58756;SDS011;44527;47.460;19.016;2024-02-26T03:39:44;21.77;;;11.63;;
58756;SDS011;44527;47.460;19.016;2024-02-26T03:42:46;20.15;;;10.45;;
58756;SDS011;44527;47.460;19.016;2024-02-26T03:45:49;23.23;;;11.52;;
58756;SDS011;44527;47.460;19.016;2024-02-26T03:48:52;17.48;;;10.80;;
58756;SDS011;44527;47.460;19.016;2024-02-26T03:51:55;19.10;;;11.20;;
58756;SDS011;44527;47.460;19.016;2024-02-26T03:54:58;18.67;;;10.95;;
58756;SDS011;44527;47.460;19.016;2024-02-26T03:58:01;17.42;;;10.23;;
58756;SDS011;44527;47.460;19.016;2024-02-26T04:01:03;19.42;;;11.32;;
58756;SDS011;44527;47.460;19.016;2024-02-26T04:04:06;20.85;;;11.10;;
58756;SDS011;44527;47.460;19.016;2024-02-26T04:07:08;18.33;;;10.30;;
58756;SDS011;44527;47.460;19.016;2024-02-26T04:10:11;19.67;;;10.68;;
58756;SDS011;44527;47.460;19.016;2024-02-26T04:13:14;20.55;;;11.45;;
58756;SDS011;44527;47.460;19.016;2024-02-26T04:16:17;19.08;;;11.45;;
58756;SDS011;44527;47.460;19.016;2024-02-26T04:19:20;20.67;;;10.60;;
58756;SDS011;44527;47.460;19.016;2024-02-26T04:22:23;24.90;;;11.55;;
58756;SDS011;44527;47.460;19.016;2024-02-26T04:25:25;18.67;;;11.00;;
58756;SDS011;44527;47.460;19.016;2024-02-26T04:28:29;23.33;;;11.25;;
58756;SDS011;44527;47.460;19.016;2024-02-26T04:31:31;19.42;;;10.45;;
58756;SDS011;44527;47.460;19.016;2024-02-26T04:34:35;20.48;;;10.05;;
58756;SDS011;44527;47.460;19.016;2024-02-26T04:37:37;21.42;;;10.65;;
58756;SDS011;44527;47.460;19.016;2024-02-26T04:40:40;21.45;;;10.80;;
58756;SDS011;44527;47.460;19.016;2024-02-26T04:43:43;19.37;;;10.70;;
58756;SDS011;44527;47.460;19.016;2024-02-26T04:46:46;18.67;;;10.23;;
58756;SDS011;44527;47.460;19.016;2024-02-26T04:49:49;16.77;;;9.75;;
58756;SDS011;44527;47.460;19.016;2024-02-26T04:52:53;19.70;;;10.18;;
58756;SDS011;44527;47.460;19.016;2024-02-26T04:55:55;18.98;;;9.43;;
58756;SDS011;44527;47.460;19.016;2024-02-26T04:58:57;17.27;;;9.13;;
58756;SDS011;44527;47.460;19.016;2024-02-26T05:02:00;15.85;;;9.07;;
58756;SDS011;44527;47.460;19.016;2024-02-26T05:05:03;17.98;;;9.10;;
58756;SDS011;44527;47.460;19.016;2024-02-26T05:08:06;14.82;;;7.70;;
58756;SDS011;44527;47.460;19.016;2024-02-26T05:11:09;14.35;;;8.18;;
58756;SDS011;44527;47.460;19.016;2024-02-26T05:14:12;21.20;;;10.27;;
58756;SDS011;44527;47.460;19.016;2024-02-26T05:17:14;13.95;;;8.50;;
58756;SDS011;44527;47.460;19.016;2024-02-26T05:20:17;20.77;;;9.25;;
58756;SDS011;44527;47.460;19.016;2024-02-26T05:23:19;19.10;;;10.30;;
58756;SDS011;44527;47.460;19.016;2024-02-26T05:26:24;16.37;;;9.38;;
58756;SDS011;44527;47.460;19.016;2024-02-26T05:29:27;16.35;;;9.02;;
58756;SDS011;44527;47.460;19.016;2024-02-26T05:32:29;16.58;;;9.02;;
58756;SDS011;44527;47.460;19.016;2024-02-26T05:35:32;15.70;;;8.18;;
58756;SDS011;44527;47.460;19.016;2024-02-26T05:38:34;16.77;;;9.23;;
58756;SDS011;44527;47.460;19.016;2024-02-26T05:41:37;19.58;;;9.50;;
58756;SDS011;44527;47.460;19.016;2024-02-26T05:44:40;18.65;;;8.93;;
58756;SDS011;44527;47.460;19.016;2024-02-26T05:47:43;15.90;;;8.75;;
58756;SDS011;44527;47.460;19.016;2024-02-26T05:50:45;14.45;;;8.98;;
58756;SDS011;44527;47.460;19.016;2024-02-26T05:53:49;22.10;;;9.18;;
58756;SDS011;44527;47.460;19.016;2024-02-26T05:56:57;15.32;;;8.52;;
58756;SDS011;44527;47.460;19.016;2024-02-26T06:00:00;17.45;;;9.35;;
58756;SDS011;44527;47.460;19.016;2024-02-26T06:03:12;18.95;;;9.82;;
58756;SDS011;44527;47.460;19.016;2024-02-26T06:06:14;24.25;;;10.85;;
58756;SDS011;44527;47.460;19.016;2024-02-26T06:09:18;22.45;;;10.10;;
58756;SDS011;44527;47.460;19.016;2024-02-26T06:12:21;23.00;;;10.88;;
58756;SDS011;44527;47.460;19.016;2024-02-26T06:15:23;20.75;;;11.02;;
58756;SDS011;44527;47.460;19.016;2024-02-26T06:18:26;21.40;;;10.13;;
58756;SDS011;44527;47.460;19.016;2024-02-26T06:21:28;20.73;;;10.07;;
58756;SDS011;44527;47.460;19.016;2024-02-26T06:24:31;22.02;;;10.50;;
58756;SDS011;44527;47.460;19.016;2024-02-26T06:27:39;24.77;;;11.12;;
58756;SDS011;44527;47.460;19.016;2024-02-26T06:30:43;24.08;;;12.23;;
58756;SDS011;44527;47.460;19.016;2024-02-26T06:33:46;28.17;;;11.15;;
58756;SDS011;44527;47.460;19.016;2024-02-26T06:36:48;22.77;;;11.18;;
58756;SDS011;44527;47.460;19.016;2024-02-26T06:39:51;20.60;;;11.23;;
58756;SDS011;44527;47.460;19.016;2024-02-26T06:42:54;23.73;;;9.95;;
58756;SDS011;44527;47.460;19.016;2024-02-26T06:45:56;24.00;;;10.20;;
58756;SDS011;44527;47.460;19.016;2024-02-26T06:48:59;18.52;;;9.85;;
58756;SDS011;44527;47.460;19.016;2024-02-26T06:52:02;20.67;;;10.30;;
58756;SDS011;44527;47.460;19.016;2024-02-26T06:55:05;22.85;;;11.48;;
58756;SDS011;44527;47.460;19.016;2024-02-26T06:58:10;32.53;;;13.18;;
58756;SDS011;44527;47.460;19.016;2024-02-26T07:01:13;24.65;;;12.25;;
58756;SDS011;44527;47.460;19.016;2024-02-26T07:04:15;25.88;;;10.52;;
58756;SDS011;44527;47.460;19.016;2024-02-26T07:07:18;27.55;;;11.45;;
58756;SDS011;44527;47.460;19.016;2024-02-26T07:10:21;23.75;;;11.10;;
58756;SDS011;44527;47.460;19.016;2024-02-26T07:13:24;30.12;;;12.20;;
58756;SDS011;44527;47.460;19.016;2024-02-26T07:16:26;27.02;;;12.20;;
58756;SDS011;44527;47.460;19.016;2024-02-26T07:19:29;41.20;;;11.85;;
58756;SDS011;44527;47.460;19.016;2024-02-26T07:22:32;20.33;;;10.75;;
58756;SDS011;44527;47.460;19.016;2024-02-26T07:25:34;20.02;;;11.57;;
58756;SDS011;44527;47.460;19.016;2024-02-26T07:28:37;24.27;;;12.37;;
58756;SDS011;44527;47.460;19.016;2024-02-26T07:31:39;21.62;;;12.18;;
58756;SDS011;44527;47.460;19.016;2024-02-26T07:34:42;22.02;;;12.10;;
58756;SDS011;44527;47.460;19.016;2024-02-26T07:37:50;20.98;;;11.50;;
58756;SDS011;44527;47.460;19.016;2024-02-26T07:40:52;26.02;;;14.50;;
58756;SDS011;44527;47.460;19.016;2024-02-26T07:44:04;27.02;;;15.05;;
58756;SDS011;44527;47.460;19.016;2024-02-26T07:47:06;25.15;;;13.43;;
58756;SDS011;44527;47.460;19.016;2024-02-26T07:50:09;26.67;;;14.43;;
58756;SDS011;44527;47.460;19.016;2024-02-26T07:53:14;25.10;;;14.38;;
58756;SDS011;44527;47.460;19.016;2024-02-26T07:56:17;24.05;;;14.05;;
58756;SDS011;44527;47.460;19.016;2024-02-26T07:59:20;24.17;;;14.68;;
58756;SDS011;44527;47.460;19.016;2024-02-26T08:02:22;28.30;;;14.95;;
58756;SDS011;44527;47.460;19.016;2024-02-26T08:05:25;25.10;;;13.93;;
58756;SDS011;44527;47.460;19.016;2024-02-26T08:08:28;24.10;;;14.35;;
58756;SDS011;44527;47.460;19.016;2024-02-26T08:11:31;28.40;;;16.30;;
58756;SDS011;44527;47.460;19.016;2024-02-26T08:14:33;29.15;;;15.40;;
58756;SDS011;44527;47.460;19.016;2024-02-26T08:17:36;24.45;;;15.45;;
58756;SDS011;44527;47.460;19.016;2024-02-26T08:20:39;27.75;;;16.30;;
58756;SDS011;44527;47.460;19.016;2024-02-26T08:23:42;25.83;;;15.07;;
58756;SDS011;44527;47.460;19.016;2024-02-26T08:26:45;25.37;;;15.05;;
58756;SDS011;44527;47.460;19.016;2024-02-26T08:29:48;27.98;;;17.02;;
58756;SDS011;44527;47.460;19.016;2024-02-26T08:32:52;25.60;;;15.38;;
58756;SDS011;44527;47.460;19.016;2024-02-26T08:36:06;26.92;;;16.48;;
58756;SDS011;44527;47.460;19.016;2024-02-26T08:39:08;31.02;;;17.27;;
58756;SDS011;44527;47.460;19.016;2024-02-26T08:42:11;29.92;;;16.98;;
58756;SDS011;44527;47.460;19.016;2024-02-26T08:45:13;33.33;;;19.52;;
58756;SDS011;44527;47.460;19.016;2024-02-26T08:48:16;28.52;;;16.15;;
58756;SDS011;44527;47.460;19.016;2024-02-26T08:51:18;29.50;;;16.15;;
58756;SDS011;44527;47.460;19.016;2024-02-26T08:54:21;24.63;;;14.85;;
58756;SDS011;44527;47.460;19.016;2024-02-26T08:57:24;25.92;;;14.93;;
58756;SDS011;44527;47.460;19.016;2024-02-26T09:00:32;26.05;;;14.57;;
58756;SDS011;44527;47.460;19.016;2024-02-26T09:03:35;28.75;;;14.35;;
58756;SDS011;44527;47.460;19.016;2024-02-26T09:06:39;28.27;;;15.50;;
58756;SDS011;44527;47.460;19.016;2024-02-26T09:09:42;24.92;;;14.65;;
58756;SDS011;44527;47.460;19.016;2024-02-26T09:12:44;25.62;;;14.85;;
58756;SDS011;44527;47.460;19.016;2024-02-26T09:15:47;35.03;;;15.15;;
58756;SDS011;44527;47.460;19.016;2024-02-26T09:18:51;26.98;;;14.35;;
58756;SDS011;44527;47.460;19.016;2024-02-26T09:21:53;26.42;;;14.95;;
58756;SDS011;44527;47.460;19.016;2024-02-26T09:24:59;24.52;;;15.10;;
58756;SDS011;44527;47.460;19.016;2024-02-26T09:28:02;24.95;;;16.27;;
58756;SDS011;44527;47.460;19.016;2024-02-26T09:31:04;23.35;;;14.80;;
58756;SDS011;44527;47.460;19.016;2024-02-26T09:34:08;24.08;;;14.55;;
58756;SDS011;44527;47.460;19.016;2024-02-26T09:37:11;21.60;;;13.40;;
58756;SDS011;44527;47.460;19.016;2024-02-26T09:40:22;29.98;;;15.23;;
58756;SDS011;44527;47.460;19.016;2024-02-26T09:43:25;24.08;;;15.07;;
58756;SDS011;44527;47.460;19.016;2024-02-26T09:46:35;26.85;;;16.87;;
58756;SDS011;44527;47.460;19.016;2024-02-26T09:49:39;24.98;;;16.92;;
58756;SDS011;44527;47.460;19.016;2024-02-26T09:52:41;35.75;;;18.33;;
58756;SDS011;44527;47.460;19.016;2024-02-26T09:55:44;26.55;;;17.15;;
58756;SDS011;44527;47.460;19.016;2024-02-26T09:58:47;30.35;;;18.50;;
58756;SDS011;44527;47.460;19.016;2024-02-26T10:04:59;28.75;;;16.85;;
58756;SDS011;44527;47.460;19.016;2024-02-26T10:08:08;31.37;;;17.58;;
58756;SDS011;44527;47.460;19.016;2024-02-26T10:11:13;28.35;;;17.33;;
58756;SDS011;44527;47.460;19.016;2024-02-26T10:14:16;27.35;;;15.45;;
58756;SDS011;44527;47.460;19.016;2024-02-26T10:17:19;25.67;;;16.30;;
58756;SDS011;44527;47.460;19.016;2024-02-26T10:20:22;27.10;;;15.82;;
58756;SDS011;44527;47.460;19.016;2024-02-26T10:23:26;28.12;;;15.77;;
58756;SDS011;44527;47.460;19.016;2024-02-26T10:26:29;23.38;;;15.25;;
58756;SDS011;44527;47.460;19.016;2024-02-26T10:29:31;23.25;;;14.38;;
58756;SDS011;44527;47.460;19.016;2024-02-26T10:32:34;26.27;;;16.08;;
58756;SDS011;44527;47.460;19.016;2024-02-26T10:35:37;27.62;;;15.95;;
58756;SDS011;44527;47.460;19.016;2024-02-26T10:38:42;28.80;;;15.23;;
58756;SDS011;44527;47.460;19.016;2024-02-26T10:41:45;21.87;;;13.77;;
58756;SDS011;44527;47.460;19.016;2024-02-26T10:44:47;29.58;;;15.73;;
58756;SDS011;44527;47.460;19.016;2024-02-26T10:47:51;23.08;;;12.88;;
58756;SDS011;44527;47.460;19.016;2024-02-26T10:50:53;17.30;;;11.05;;
58756;SDS011;44527;47.460;19.016;2024-02-26T10:53:59;19.30;;;12.57;;
58756;SDS011;44527;47.460;19.016;2024-02-26T10:57:12;22.50;;;13.00;;
58756;SDS011;44527;47.460;19.016;2024-02-26T11:00:15;20.40;;;12.23;;
58756;SDS011;44527;47.460;19.016;2024-02-26T11:03:18;20.23;;;10.40;;
58756;SDS011;44527;47.460;19.016;2024-02-26T11:06:23;23.50;;;11.10;;
58756;SDS011;44527;47.460;19.016;2024-02-26T11:09:25;19.20;;;11.60;;
58756;SDS011;44527;47.460;19.016;2024-02-26T11:12:30;16.77;;;9.50;;
58756;SDS011;44527;47.460;19.016;2024-02-26T11:15:34;16.83;;;10.38;;
58756;SDS011;44527;47.460;19.016;2024-02-26T11:18:37;13.30;;;8.57;;
58756;SDS011;44527;47.460;19.016;2024-02-26T11:21:43;20.40;;;8.65;;
58756;SDS011;44527;47.460;19.016;2024-02-26T11:24:46;17.48;;;9.68;;
58756;SDS011;44527;47.460;19.016;2024-02-26T11:27:50;17.08;;;9.95;;
58756;SDS011;44527;47.460;19.016;2024-02-26T11:30:56;15.40;;;9.35;;
58756;SDS011;44527;47.460;19.016;2024-02-26T11:34:01;14.45;;;8.23;;
58756;SDS011;44527;47.460;19.016;2024-02-26T11:37:11;12.60;;;7.68;;
58756;SDS011;44527;47.460;19.016;2024-02-26T11:40:15;14.60;;;8.65;;
58756;SDS011;44527;47.460;19.016;2024-02-26T11:43:18;13.73;;;8.70;;
58756;SDS011;44527;47.460;19.016;2024-02-26T11:46:31;17.65;;;8.02;;
58756;SDS011;44527;47.460;19.016;2024-02-26T11:49:35;16.05;;;7.90;;
58756;SDS011;44527;47.460;19.016;2024-02-26T11:53:17;13.20;;;8.10;;
58756;SDS011;44527;47.460;19.016;2024-02-26T11:56:25;12.70;;;6.80;;
58756;SDS011;44527;47.460;19.016;2024-02-26T11:59:37;12.80;;;6.32;;
58756;SDS011;44527;47.460;19.016;2024-02-26T12:02:44;20.40;;;7.87;;
58756;SDS011;44527;47.460;19.016;2024-02-26T12:05:51;12.37;;;7.18;;
58756;SDS011;44527;47.460;19.016;2024-02-26T12:08:54;10.32;;;6.18;;
58756;SDS011;44527;47.460;19.016;2024-02-26T12:11:57;10.10;;;5.60;;
58756;SDS011;44527;47.460;19.016;2024-02-26T12:15:00;8.82;;;5.43;;
58756;SDS011;44527;47.460;19.016;2024-02-26T12:18:05;9.15;;;6.18;;
58756;SDS011;44527;47.460;19.016;2024-02-26T12:21:10;11.25;;;6.00;;
58756;SDS011;44527;47.460;19.016;2024-02-26T12:24:15;10.02;;;5.90;;
58756;SDS011;44527;47.460;19.016;2024-02-26T12:27:20;9.75;;;6.20;;
58756;SDS011;44527;47.460;19.016;2024-02-26T12:30:26;8.77;;;5.53;;
58756;SDS011;44527;47.460;19.016;2024-02-26T12:33:35;12.13;;;6.05;;
58756;SDS011;44527;47.460;19.016;2024-02-26T12:36:38;8.77;;;5.10;;
58756;SDS011;44527;47.460;19.016;2024-02-26T12:39:42;11.55;;;5.22;;
58756;SDS011;44527;47.460;19.016;2024-02-26T12:42:45;7.12;;;4.95;;
58756;SDS011;44527;47.460;19.016;2024-02-26T12:45:48;9.05;;;5.57;;
58756;SDS011;44527;47.460;19.016;2024-02-26T12:48:50;12.55;;;5.35;;
58756;SDS011;44527;47.460;19.016;2024-02-26T12:51:53;12.95;;;5.15;;
58756;SDS011;44527;47.460;19.016;2024-02-26T12:54:57;6.90;;;5.12;;
58756;SDS011;44527;47.460;19.016;2024-02-26T12:58:00;7.72;;;5.47;;
58756;SDS011;44527;47.460;19.016;2024-02-26T13:01:03;8.93;;;5.80;;
58756;SDS011;44527;47.460;19.016;2024-02-26T13:04:06;10.70;;;5.55;;
58756;SDS011;44527;47.460;19.016;2024-02-26T13:07:11;10.65;;;5.47;;
58756;SDS011;44527;47.460;19.016;2024-02-26T13:10:14;9.13;;;5.93;;
58756;SDS011;44527;47.460;19.016;2024-02-26T13:13:23;8.27;;;5.45;;
58756;SDS011;44527;47.460;19.016;2024-02-26T13:16:25;8.25;;;5.80;;
58756;SDS011;44527;47.460;19.016;2024-02-26T13:19:28;12.63;;;5.32;;
58756;SDS011;44527;47.460;19.016;2024-02-26T13:22:31;9.65;;;5.70;;
58756;SDS011;44527;47.460;19.016;2024-02-26T13:25:35;6.93;;;5.70;;
58756;SDS011;44527;47.460;19.016;2024-02-26T13:28:44;7.87;;;5.55;;
58756;SDS011;44527;47.460;19.016;2024-02-26T13:31:47;9.02;;;5.43;;
58756;SDS011;44527;47.460;19.016;2024-02-26T13:34:49;8.13;;;5.32;;
58756;SDS011;44527;47.460;19.016;2024-02-26T13:37:52;11.48;;;6.10;;
58756;SDS011;44527;47.460;19.016;2024-02-26T13:40:54;12.52;;;5.95;;
58756;SDS011;44527;47.460;19.016;2024-02-26T13:43:57;7.72;;;5.82;;
58756;SDS011;44527;47.460;19.016;2024-02-26T13:46:59;9.38;;;6.03;;
58756;SDS011;44527;47.460;19.016;2024-02-26T13:50:02;8.52;;;5.87;;
58756;SDS011;44527;47.460;19.016;2024-02-26T13:53:05;8.15;;;6.55;;
58756;SDS011;44527;47.460;19.016;2024-02-26T13:56:07;7.70;;;5.57;;
58756;SDS011;44527;47.460;19.016;2024-02-26T13:59:11;9.85;;;6.78;;
58756;SDS011;44527;47.460;19.016;2024-02-26T14:02:14;12.68;;;7.03;;
58756;SDS011;44527;47.460;19.016;2024-02-26T14:05:16;13.25;;;7.35;;
58756;SDS011;44527;47.460;19.016;2024-02-26T14:08:19;12.98;;;6.80;;
58756;SDS011;44527;47.460;19.016;2024-02-26T14:11:21;11.40;;;7.03;;
58756;SDS011;44527;47.460;19.016;2024-02-26T14:14:24;11.57;;;6.95;;
58756;SDS011;44527;47.460;19.016;2024-02-26T14:17:27;13.10;;;7.55;;
58756;SDS011;44527;47.460;19.016;2024-02-26T14:20:30;11.95;;;6.82;;
58756;SDS011;44527;47.460;19.016;2024-02-26T14:23:32;8.95;;;7.05;;
58756;SDS011;44527;47.460;19.016;2024-02-26T14:26:34;11.65;;;6.97;;
58756;SDS011;44527;47.460;19.016;2024-02-26T14:29:37;10.52;;;7.65;;
58756;SDS011;44527;47.460;19.016;2024-02-26T14:32:42;10.15;;;6.37;;
58756;SDS011;44527;47.460;19.016;2024-02-26T14:35:45;12.27;;;7.03;;
58756;SDS011;44527;47.460;19.016;2024-02-26T14:38:48;11.10;;;7.50;;
58756;SDS011;44527;47.460;19.016;2024-02-26T14:41:50;16.48;;;8.18;;
58756;SDS011;44527;47.460;19.016;2024-02-26T14:44:56;12.73;;;8.30;;
58756;SDS011;44527;47.460;19.016;2024-02-26T14:47:58;14.90;;;9.38;;
58756;SDS011;44527;47.460;19.016;2024-02-26T14:51:01;14.65;;;9.25;;
58756;SDS011;44527;47.460;19.016;2024-02-26T14:54:03;14.02;;;8.68;;
58756;SDS011;44527;47.460;19.016;2024-02-26T14:57:06;15.32;;;9.77;;
58756;SDS011;44527;47.460;19.016;2024-02-26T15:00:10;18.73;;;9.02;;
58756;SDS011;44527;47.460;19.016;2024-02-26T15:03:12;13.25;;;7.68;;
58756;SDS011;44527;47.460;19.016;2024-02-26T15:06:15;15.65;;;9.20;;
58756;SDS011;44527;47.460;19.016;2024-02-26T15:09:17;12.73;;;8.88;;
58756;SDS011;44527;47.460;19.016;2024-02-26T15:12:20;11.73;;;7.93;;
58756;SDS011;44527;47.460;19.016;2024-02-26T15:15:33;11.18;;;8.02;;
58756;SDS011;44527;47.460;19.016;2024-02-26T15:18:36;17.75;;;7.93;;
58756;SDS011;44527;47.460;19.016;2024-02-26T15:21:43;27.75;;;10.80;;
58756;SDS011;44527;47.460;19.016;2024-02-26T15:24:46;11.35;;;7.40;;
58756;SDS011;44527;47.460;19.016;2024-02-26T15:27:49;12.57;;;7.90;;
58756;SDS011;44527;47.460;19.016;2024-02-26T15:30:51;14.52;;;8.18;;
58756;SDS011;44527;47.460;19.016;2024-02-26T15:33:53;18.55;;;8.52;;
58756;SDS011;44527;47.460;19.016;2024-02-26T15:36:56;18.83;;;8.48;;
58756;SDS011;44527;47.460;19.016;2024-02-26T15:39:58;18.48;;;8.25;;
58756;SDS011;44527;47.460;19.016;2024-02-26T15:43:01;15.82;;;8.05;;
58756;SDS011;44527;47.460;19.016;2024-02-26T15:46:03;15.95;;;8.02;;
58756;SDS011;44527;47.460;19.016;2024-02-26T15:49:06;14.02;;;7.70;;
58756;SDS011;44527;47.460;19.016;2024-02-26T15:52:08;15.98;;;8.35;;
58756;SDS011;44527;47.460;19.016;2024-02-26T15:55:11;20.05;;;8.73;;
58756;SDS011;44527;47.460;19.016;2024-02-26T15:58:18;18.67;;;8.77;;
58756;SDS011;44527;47.460;19.016;2024-02-26T16:01:20;12.48;;;8.40;;
58756;SDS011;44527;47.460;19.016;2024-02-26T16:04:28;22.25;;;9.48;;
58756;SDS011;44527;47.460;19.016;2024-02-26T16:07:32;29.80;;;9.40;;
58756;SDS011;44527;47.460;19.016;2024-02-26T16:10:39;21.02;;;9.25;;
58756;SDS011;44527;47.460;19.016;2024-02-26T16:13:42;15.48;;;9.38;;
58756;SDS011;44527;47.460;19.016;2024-02-26T16:16:47;24.45;;;10.45;;
58756;SDS011;44527;47.460;19.016;2024-02-26T16:19:54;23.10;;;10.63;;
58756;SDS011;44527;47.460;19.016;2024-02-26T16:22:57;24.85;;;12.60;;
58756;SDS011;44527;47.460;19.016;2024-02-26T16:26:02;26.92;;;12.43;;
58756;SDS011;44527;47.460;19.016;2024-02-26T16:29:04;21.02;;;12.18;;
58756;SDS011;44527;47.460;19.016;2024-02-26T16:32:06;19.87;;;11.85;;
58756;SDS011;44527;47.460;19.016;2024-02-26T16:35:10;28.92;;;11.70;;
58756;SDS011;44527;47.460;19.016;2024-02-26T16:38:13;21.58;;;12.27;;
58756;SDS011;44527;47.460;19.016;2024-02-26T16:41:16;19.83;;;12.27;;
58756;SDS011;44527;47.460;19.016;2024-02-26T16:44:18;21.12;;;12.73;;
58756;SDS011;44527;47.460;19.016;2024-02-26T16:47:21;23.48;;;13.27;;
58756;SDS011;44527;47.460;19.016;2024-02-26T16:50:24;29.52;;;16.40;;
58756;SDS011;44527;47.460;19.016;2024-02-26T16:53:26;28.67;;;16.25;;
58756;SDS011;44527;47.460;19.016;2024-02-26T16:56:29;28.87;;;15.90;;
58756;SDS011;44527;47.460;19.016;2024-02-26T16:59:31;27.77;;;14.00;;
58756;SDS011;44527;47.460;19.016;2024-02-26T17:02:33;29.52;;;14.20;;
58756;SDS011;44527;47.460;19.016;2024-02-26T17:05:36;32.13;;;16.52;;
58756;SDS011;44527;47.460;19.016;2024-02-26T17:08:38;30.52;;;17.17;;
58756;SDS011;44527;47.460;19.016;2024-02-26T17:11:44;30.75;;;15.82;;
58756;SDS011;44527;47.460;19.016;2024-02-26T17:14:48;50.33;;;18.52;;
58756;SDS011;44527;47.460;19.016;2024-02-26T17:17:52;31.40;;;15.40;;
58756;SDS011;44527;47.460;19.016;2024-02-26T17:20:55;47.17;;;16.10;;
58756;SDS011;44527;47.460;19.016;2024-02-26T17:24:00;35.72;;;16.80;;
58756;SDS011;44527;47.460;19.016;2024-02-26T17:27:05;31.45;;;16.37;;
58756;SDS011;44527;47.460;19.016;2024-02-26T17:30:08;29.33;;;14.85;;
58756;SDS011;44527;47.460;19.016;2024-02-26T17:33:10;26.73;;;14.80;;
58756;SDS011;44527;47.460;19.016;2024-02-26T17:36:13;32.55;;;16.42;;
58756;SDS011;44527;47.460;19.016;2024-02-26T17:39:16;26.67;;;15.35;;
58756;SDS011;44527;47.460;19.016;2024-02-26T17:42:20;27.25;;;17.12;;
58756;SDS011;44527;47.460;19.016;2024-02-26T17:45:22;33.03;;;14.95;;
58756;SDS011;44527;47.460;19.016;2024-02-26T17:48:26;31.02;;;14.63;;
58756;SDS011;44527;47.460;19.016;2024-02-26T17:51:32;30.02;;;15.45;;